Time;durP1;ratioP1;P1;durP2;ratioP2;P2;SDS_P1;SDS_P2;PMS_P1;PMS_P2;Temp;Humidity;BMP_temperature;BMP_pressure;BME280_temperature;BME280_humidity;BME280_pressure;Samples;Min_cycle;Max_cycle;Signal;HPM_P1;HPM_P2
2022/08/29 00:01:23;;;;;;;;;18.00;15.75;;;;;23.62;57.46;99128.38;5008254;28;45648;-63
2022/08/29 00:03:49;;;;;;;;;14.00;13.75;;;;;23.64;57.42;99125.50;5007225;28;45493;-64
2022/08/29 00:06:14;;;;;;;;;18.00;14.50;;;;;23.62;57.69;99127.53;4986612;28;45456;-64
2022/08/29 00:08:40;;;;;;;;;16.50;15.75;;;;;23.62;57.67;99135.59;5011069;28;45457;-64
2022/08/29 00:11:06;;;;;;;;;17.50;16.00;;;;;23.61;57.20;99141.97;4991522;28;45554;-62
2022/08/29 00:13:32;;;;;;;;;16.75;16.75;;;;;23.59;57.63;99138.59;4997181;28;46185;-62
2022/08/29 00:15:57;;;;;;;;;16.50;16.00;;;;;23.56;57.69;99139.72;5013302;28;45524;-62
2022/08/29 00:18:23;;;;;;;;;19.50;16.75;;;;;23.52;57.76;99143.69;4994517;28;45573;-63
2022/08/29 00:20:49;;;;;;;;;16.00;13.25;;;;;23.50;58.07;99137.53;5009187;28;45343;-63
2022/08/29 00:23:15;;;;;;;;;18.75;16.00;;;;;23.48;57.72;99147.59;5006127;28;45419;-63
2022/08/29 00:25:41;;;;;;;;;17.00;16.25;;;;;23.47;58.48;99147.75;5006191;28;45458;-62
2022/08/29 00:28:06;;;;;;;;;14.25;14.25;;;;;23.45;58.69;99150.59;5013799;28;45459;-63
2022/08/29 00:30:33;;;;;;;;;14.50;13.25;;;;;23.40;58.17;99155.56;5009665;28;45458;-64
2022/08/29 00:32:58;;;;;;;;;17.00;16.25;;;;;23.34;58.34;99145.34;5012475;28;45757;-64
2022/08/29 00:35:28;;;;;;;;;17.25;16.25;;;;;23.31;58.75;99159.06;5014242;28;45501;-64
2022/08/29 00:37:54;;;;;;;;;15.75;15.50;;;;;23.27;58.19;99155.84;5011379;28;45398;-61
2022/08/29 00:40:34;;;;;;;;;17.00;16.50;;;;;23.24;58.47;99149.88;5008546;28;45473;-61
2022/08/29 00:43:00;;;;;;;;;15.25;15.25;;;;;23.22;58.48;99157.25;5013806;28;45438;-61
2022/08/29 00:45:26;;;;;;;;;12.25;11.25;;;;;23.21;58.73;99159.06;4992940;28;45528;-61
2022/08/29 00:47:57;;;;;;;;;16.25;15.00;;;;;23.20;58.92;99167.28;5011846;28;45447;-62
2022/08/29 00:50:41;;;;;;;;;13.75;13.25;;;;;23.21;58.99;99169.84;5011617;28;45502;-62
2022/08/29 00:53:10;;;;;;;;;21.00;17.50;;;;;23.21;58.81;99169.84;5012728;28;45601;-62
2022/08/29 00:55:38;;;;;;;;;16.00;16.00;;;;;23.17;59.03;99163.03;4992683;28;45521;-62
2022/08/29 00:58:10;;;;;;;;;16.75;16.50;;;;;23.16;59.04;99165.84;4981476;28;45468;-62
2022/08/29 01:00:37;;;;;;;;;20.25;18.50;;;;;23.16;59.13;99160.47;4989005;28;45383;-62
2022/08/29 01:03:04;;;;;;;;;19.50;19.50;;;;;23.14;59.29;99165.16;5002636;28;46447;-62
2022/08/29 01:05:30;;;;;;;;;14.25;14.00;;;;;23.13;59.39;99166.13;5006712;28;45431;-62
2022/08/29 01:07:56;;;;;;;;;17.25;14.50;;;;;23.12;59.50;99159.94;5006812;28;45437;-62
2022/08/29 01:13:09;;;;;;;;;18.25;16.00;;;;;23.08;59.61;99169.25;5007310;28;45819;-62
2022/08/29 01:15:36;;;;;;;;;17.00;17.00;;;;;23.06;59.79;99165.00;4988953;28;45457;-63
2022/08/29 01:18:03;;;;;;;;;17.50;15.25;;;;;23.05;59.77;99163.31;5010000;28;45544;-63
2022/08/29 01:20:44;;;;;;;;;17.75;16.25;;;;;23.02;59.29;99164.44;4995355;28;45811;-63
2022/08/29 01:23:39;;;;;;;;;16.25;16.25;;;;;23.00;59.74;99170.94;5012179;28;45473;-63
2022/08/29 01:26:05;;;;;;;;;18.75;18.75;;;;;22.95;59.96;99172.22;5011222;28;45573;-63
2022/08/29 01:28:34;;;;;;;;;15.75;14.50;;;;;22.94;59.89;99170.53;4999759;28;45406;-63
2022/08/29 01:31:12;;;;;;;;;16.00;15.50;;;;;22.92;59.60;99172.50;4989589;28;45545;-63
2022/08/29 01:33:40;;;;;;;;;20.75;16.75;;;;;22.93;60.03;99170.66;5008589;28;45416;-63
2022/08/29 01:36:08;;;;;;;;;15.50;14.25;;;;;22.90;59.67;99169.09;5005636;28;45456;-63
2022/08/29 01:38:34;;;;;;;;;15.00;14.00;;;;;22.89;60.04;99161.16;5006951;28;45362;-60
2022/08/29 01:40:59;;;;;;;;;16.25;15.25;;;;;22.88;59.86;99165.69;5011673;28;45293;-61
2022/08/29 01:43:26;;;;;;;;;16.50;15.75;;;;;22.89;60.05;99166.53;5008266;28;46495;-61
2022/08/29 01:45:53;;;;;;;;;15.75;15.00;;;;;22.87;59.87;99163.97;5011221;28;45439;-61
2022/08/29 01:48:20;;;;;;;;;14.50;14.00;;;;;22.87;60.05;99171.19;4979138;28;45441;-60
2022/08/29 01:50:46;;;;;;;;;16.00;14.75;;;;;22.85;60.26;99174.03;5012134;28;45501;-60
2022/08/29 01:53:13;;;;;;;;;17.50;16.50;;;;;22.84;60.28;99175.00;5015085;28;45521;-62
2022/08/29 01:55:39;;;;;;;;;15.00;14.75;;;;;22.79;60.54;99179.94;4998286;28;45416;-61
2022/08/29 01:58:06;;;;;;;;;18.00;17.75;;;;;22.76;61.12;99176.66;5016526;28;45574;-62
2022/08/29 02:00:32;;;;;;;;;14.00;13.50;;;;;22.74;61.29;99173.25;4998775;28;45628;-63
2022/08/29 02:03:00;;;;;;;;;15.00;15.00;;;;;22.73;61.23;99180.47;4998701;28;46205;-62
2022/08/29 02:05:26;;;;;;;;;18.00;18.00;;;;;22.72;61.03;99177.91;5005748;28;45422;-62
2022/08/29 02:07:52;;;;;;;;;17.00;17.00;;;;;22.71;61.40;99181.59;5008810;28;45547;-63
2022/08/29 02:10:18;;;;;;;;;20.25;19.00;;;;;22.71;60.95;99184.28;5012470;28;45339;-62
2022/08/29 02:12:43;;;;;;;;;21.00;18.00;;;;;22.67;61.00;99177.47;5010137;28;46794;-62
2022/08/29 02:15:12;;;;;;;;;20.00;17.25;;;;;22.66;61.28;99178.44;5008949;28;45464;-62
2022/08/29 02:17:37;;;;;;;;;16.00;15.25;;;;;22.62;61.24;99178.72;5012121;28;45384;-62
2022/08/29 02:20:07;;;;;;;;;20.25;18.00;;;;;22.59;61.44;99184.38;5011417;28;45522;-63
2022/08/29 02:22:34;;;;;;;;;18.75;18.75;;;;;22.55;61.44;99185.63;5014164;28;45600;-62
2022/08/29 02:25:00;;;;;;;;;15.00;14.50;;;;;22.52;61.40;99180.53;4998846;28;45417;-66
2022/08/29 02:27:26;;;;;;;;;17.00;16.00;;;;;22.51;61.45;99177.97;5008209;28;45510;-65
2022/08/29 02:29:51;;;;;;;;;17.50;15.25;;;;;22.50;61.31;99187.88;5009393;28;45586;-65
2022/08/29 02:32:17;;;;;;;;;16.00;15.25;;;;;22.47;61.86;99190.81;4992902;28;45645;-65
2022/08/29 02:34:44;;;;;;;;;20.00;14.25;;;;;22.42;61.50;99197.59;4993309;28;45498;-65
2022/08/29 02:37:09;;;;;;;;;10.75;10.75;;;;;22.36;61.91;99190.94;5009300;28;45372;-64
2022/08/29 02:39:35;;;;;;;;;19.00;18.00;;;;;22.31;61.88;99194.97;5009878;28;45414;-65
2022/08/29 02:42:01;;;;;;;;;17.25;17.25;;;;;22.28;62.20;99194.31;5004380;28;45366;-62
2022/08/29 02:44:27;;;;;;;;;15.00;15.00;;;;;22.25;62.05;99189.19;5012783;28;45670;-62
2022/08/29 02:46:52;;;;;;;;;14.50;14.50;;;;;22.25;62.01;99182.97;5014318;28;45471;-62
2022/08/29 02:49:18;;;;;;;;;16.50;15.25;;;;;22.26;61.71;99184.66;5014274;28;45517;-62
2022/08/29 02:51:43;;;;;;;;;19.75;16.25;;;;;22.26;62.33;99182.84;4994009;28;46635;-62
2022/08/29 02:54:11;;;;;;;;;20.50;16.00;;;;;22.28;62.45;99180.00;4997915;28;45316;-61
2022/08/29 02:56:37;;;;;;;;;18.25;18.25;;;;;22.28;62.49;99182.69;4994664;28;45358;-61
2022/08/29 02:59:02;;;;;;;;;19.50;18.75;;;;;22.26;62.52;99179.28;4982154;28;45529;-62
2022/08/29 03:01:29;;;;;;;;;15.50;14.75;;;;;22.23;62.21;99183.09;5011236;28;45939;-62
2022/08/29 03:03:56;;;;;;;;;16.25;15.75;;;;;22.21;62.16;99187.75;5015369;28;45444;-62
2022/08/29 03:06:22;;;;;;;;;19.00;18.25;;;;;22.20;62.38;99182.50;5011560;28;45367;-64
2022/08/29 03:08:48;;;;;;;;;16.50;16.50;;;;;22.17;62.63;99183.63;4998130;28;45539;-64
2022/08/29 03:11:14;;;;;;;;;16.50;16.00;;;;;22.15;62.68;99190.09;5009941;28;45555;-64
2022/08/29 03:13:40;;;;;;;;;15.25;15.25;;;;;22.14;63.19;99199.13;5012315;28;45413;-63
2022/08/29 03:16:06;;;;;;;;;21.00;17.75;;;;;22.09;63.04;99190.66;5009050;28;45437;-63
2022/08/29 03:18:32;;;;;;;;;20.75;18.25;;;;;22.04;63.40;99185.66;4997559;28;45405;-63
2022/08/29 03:20:58;;;;;;;;;19.00;18.00;;;;;21.99;63.46;99187.00;5009509;28;46511;-62
2022/08/29 03:23:25;;;;;;;;;13.00;12.00;;;;;21.94;63.36;99190.09;5013251;28;45471;-61
2022/08/29 03:25:50;;;;;;;;;19.00;18.50;;;;;21.90;63.38;99191.34;5011698;28;45434;-61
2022/08/29 03:28:17;;;;;;;;;18.00;15.75;;;;;21.89;63.60;99195.00;5015054;28;45742;-61
2022/08/29 03:30:42;;;;;;;;;15.25;14.50;;;;;21.87;63.83;99186.22;4996636;28;47076;-61
2022/08/29 03:33:08;;;;;;;;;18.75;16.50;;;;;21.87;64.34;99200.50;5006784;28;45370;-61
2022/08/29 03:35:33;;;;;;;;;15.25;14.25;;;;;21.88;63.54;99198.66;5012841;28;45403;-61
2022/08/29 03:37:59;;;;;;;;;15.75;15.75;;;;;21.87;63.78;99203.19;5011721;28;45435;-62
2022/08/29 03:40:25;;;;;;;;;18.25;18.00;;;;;21.84;63.45;99198.06;5010974;28;45387;-61
2022/08/29 03:42:51;;;;;;;;;15.00;14.75;;;;;21.82;63.78;99194.66;5013266;28;45472;-60
2022/08/29 03:45:20;;;;;;;;;16.25;15.00;;;;;21.79;63.87;99191.38;4995666;28;45462;-61
2022/08/29 03:47:47;;;;;;;;;19.25;16.50;;;;;21.76;64.03;99192.53;5006926;28;45601;-61
2022/08/29 03:50:14;;;;;;;;;18.50;17.50;;;;;21.75;64.01;99193.50;4994468;28;47330;-60
2022/08/29 03:52:42;;;;;;;;;17.25;15.50;;;;;21.75;64.01;99198.03;5012877;28;45402;-64
2022/08/29 03:55:08;;;;;;;;;16.00;16.00;;;;;21.76;64.01;99210.47;4994103;28;45437;-64
2022/08/29 03:57:34;;;;;;;;;23.00;18.50;;;;;21.78;64.58;99192.41;5012558;28;45501;-64
2022/08/29 04:00:00;;;;;;;;;17.25;16.25;;;;;21.78;64.07;99195.09;5011583;28;46351;-64
2022/08/29 04:02:26;;;;;;;;;18.50;17.00;;;;;21.79;64.14;99199.44;5014232;28;45511;-62
2022/08/29 04:05:07;;;;;;;;;21.25;19.00;;;;;21.78;63.96;99197.75;4998850;28;45430;-61
2022/08/29 04:07:57;;;;;;;;;18.75;18.25;;;;;21.77;64.23;99198.75;5014109;28;45470;-62
2022/08/29 04:10:29;;;;;;;;;15.00;14.75;;;;;21.76;64.37;99208.63;5008244;28;46622;-61
2022/08/29 04:12:56;;;;;;;;;16.50;15.75;;;;;21.74;64.29;99209.72;4996553;28;45386;-61
2022/08/29 04:15:24;;;;;;;;;18.75;15.50;;;;;21.72;64.33;99206.31;5011146;28;45524;-62
2022/08/29 04:17:53;;;;;;;;;17.00;17.00;;;;;21.72;64.28;99211.69;5012366;28;45626;-60
2022/08/29 04:20:18;;;;;;;;;15.75;14.00;;;;;21.70;64.08;99217.19;5012284;28;46421;-61
2022/08/29 04:22:44;;;;;;;;;20.25;16.75;;;;;21.71;64.45;99224.25;5004173;28;45367;-61
2022/08/29 04:25:13;;;;;;;;;16.50;16.25;;;;;21.70;64.07;99222.56;5004119;28;45422;-62
2022/08/29 04:27:40;;;;;;;;;16.75;16.25;;;;;21.70;64.07;99230.59;5013433;28;45443;-61
2022/08/29 04:30:10;;;;;;;;;20.50;17.50;;;;;21.70;64.20;99232.44;5007804;28;46258;-62
2022/08/29 04:32:35;;;;;;;;;15.75;15.50;;;;;21.68;64.53;99229.03;4995911;28;45479;-62
2022/08/29 04:35:01;;;;;;;;;20.33;19.00;;;;;21.66;64.18;99237.19;5013590;28;45433;-61
2022/08/29 04:37:27;;;;;;;;;18.50;15.50;;;;;21.64;64.10;99240.97;5009272;28;45488;-62
2022/08/29 04:39:53;;;;;;;;;19.67;19.00;;;;;21.60;64.56;99245.78;5007323;28;46019;-61
2022/08/29 04:42:18;;;;;;;;;16.25;16.25;;;;;21.55;64.74;99242.63;4996373;28;45508;-61
2022/08/29 04:44:45;;;;;;;;;14.25;14.25;;;;;21.52;65.09;99248.25;5007211;28;45430;-61
2022/08/29 04:47:10;;;;;;;;;15.75;15.75;;;;;21.49;65.17;99261.91;5011450;28;45467;-62
2022/08/29 04:49:35;;;;;;;;;18.50;17.00;;;;;21.45;64.88;99255.09;5008852;28;46034;-60
2022/08/29 04:52:01;;;;;;;;;16.50;14.75;;;;;21.43;64.63;99265.09;5012809;28;45325;-66
2022/08/29 04:54:28;;;;;;;;;19.00;16.00;;;;;21.39;65.23;99263.66;5009616;28;45663;-60
2022/08/29 04:56:54;;;;;;;;;14.00;14.00;;;;;21.37;65.11;99261.09;5012308;28;45355;-63
2022/08/29 04:59:19;;;;;;;;;19.75;18.00;;;;;21.36;65.35;99263.91;5012700;28;45437;-70
2022/08/29 05:01:45;;;;;;;;;17.25;17.25;;;;;21.34;65.79;99269.38;5008222;28;45493;-65
2022/08/29 05:04:10;;;;;;;;;18.50;18.25;;;;;21.33;65.78;99275.72;4996501;28;45496;-61
2022/08/29 05:06:36;;;;;;;;;16.75;16.50;;;;;21.33;65.97;99281.09;5007935;28;45494;-62
2022/08/29 05:09:01;;;;;;;;;17.25;16.25;;;;;21.35;65.98;99270.22;5005993;28;45588;-62
2022/08/29 05:11:29;;;;;;;;;20.00;17.75;;;;;21.35;65.58;99273.78;5008265;28;45486;-65
2022/08/29 05:13:56;;;;;;;;;21.50;19.50;;;;;21.36;65.77;99275.47;4999692;28;45479;-61
2022/08/29 05:16:21;;;;;;;;;23.00;21.67;;;;;21.37;65.85;99279.00;5008772;28;45736;-64
2022/08/29 05:18:47;;;;;;;;;17.50;17.00;;;;;21.36;66.02;99279.97;4993858;28;45435;-61
2022/08/29 05:21:22;;;;;;;;;15.00;15.00;;;;;21.36;65.91;99285.34;5011937;28;45492;-57
2022/08/29 05:23:48;;;;;;;;;22.25;20.25;;;;;21.36;66.58;99290.72;5007153;28;45476;-58
2022/08/29 05:26:13;;;;;;;;;17.25;17.25;;;;;21.38;65.84;99289.63;5013454;28;45608;-61
2022/08/29 05:28:40;;;;;;;;;94.25;84.75;;;;;21.40;66.22;99295.72;4995098;28;46473;-62
2022/08/29 05:31:05;;;;;;;;;18.75;17.25;;;;;21.46;65.85;99294.34;5010777;28;45586;-59
2022/08/29 05:33:31;;;;;;;;;22.00;20.00;;;;;21.49;65.70;99303.00;5011603;28;45484;-59
2022/08/29 05:35:57;;;;;;;;;18.00;17.33;;;;;21.47;65.65;99302.25;5011125;28;45628;-57
2022/08/29 05:38:23;;;;;;;;;21.67;21.67;;;;;21.45;66.13;99309.56;5010079;28;45425;-57
2022/08/29 05:40:48;;;;;;;;;20.75;19.75;;;;;21.43;66.02;99311.56;5015359;28;45374;-59
2022/08/29 05:43:14;;;;;;;;;17.50;16.50;;;;;21.44;66.14;99313.28;5014725;28;45527;-59
2022/08/29 05:45:40;;;;;;;;;68.00;53.33;;;;;21.47;65.95;99310.31;5013826;28;45451;-62
2022/08/29 05:48:07;;;;;;;;;20.50;19.50;;;;;21.54;65.41;99310.66;4992295;28;45879;-62
2022/08/29 05:50:40;;;;;;;;;18.50;18.50;;;;;21.53;64.99;99306.28;5011174;28;45505;-62
2022/08/29 05:53:07;;;;;;;;;20.00;18.50;;;;;21.52;65.35;99312.63;5006645;28;45398;-60
2022/08/29 05:55:37;;;;;;;;;19.25;19.25;;;;;21.52;65.49;99323.34;5012839;28;45332;-62
2022/08/29 05:58:02;;;;;;;;;19.25;18.50;;;;;21.52;65.19;99326.88;5003918;28;45902;-60
2022/08/29 06:00:28;;;;;;;;;22.00;20.00;;;;;21.53;65.02;99330.44;5013818;28;45520;-62
2022/08/29 06:02:53;;;;;;;;;20.00;15.00;;;;;21.53;65.46;99328.59;5009615;28;45840;-60
2022/08/29 06:05:19;;;;;;;;;27.00;20.67;;;;;21.54;65.36;99333.00;5011238;28;45563;-63
2022/08/29 06:07:44;;;;;;;;;21.25;17.00;;;;;21.57;65.09;99339.94;5013821;28;46026;-63
2022/08/29 06:10:09;;;;;;;;;22.75;19.25;;;;;21.60;64.95;99342.38;4994495;28;45374;-58
2022/08/29 06:12:35;;;;;;;;;17.25;15.50;;;;;21.64;65.35;99346.50;5012097;28;45433;-62
2022/08/29 06:15:01;;;;;;;;;20.25;18.25;;;;;21.67;65.13;99337.34;5011113;28;45352;-64
2022/08/29 06:17:26;;;;;;;;;16.50;15.75;;;;;21.68;64.95;99342.59;5004596;28;45523;-63
2022/08/29 06:19:52;;;;;;;;;21.25;20.25;;;;;21.71;65.24;99347.69;5001200;28;45562;-63
2022/08/29 06:22:21;;;;;;;;;17.25;17.00;;;;;21.72;64.59;99335.13;5008631;28;45340;-64
2022/08/29 06:24:47;;;;;;;;;19.00;17.25;;;;;21.76;65.01;99340.13;4985575;28;45534;-63
2022/08/29 06:27:13;;;;;;;;;20.50;20.25;;;;;21.81;64.65;99340.59;5013136;28;45527;-63
2022/08/29 06:29:40;;;;;;;;;23.25;18.75;;;;;21.86;64.93;99342.91;5007234;28;45451;-63
2022/08/29 06:32:05;;;;;;;;;21.00;19.33;;;;;21.91;64.93;99346.91;4996788;28;45526;-63
2022/08/29 06:34:30;;;;;;;;;20.75;18.00;;;;;21.97;64.00;99347.38;5010076;28;45395;-56
2022/08/29 06:36:56;;;;;;;;;21.75;17.25;;;;;22.02;64.09;99345.19;5008113;28;45754;-57
2022/08/29 06:39:21;;;;;;;;;20.75;19.00;;;;;22.05;64.14;99344.94;5014689;28;45365;-59
2022/08/29 06:41:47;;;;;;;;;16.75;16.50;;;;;22.08;63.76;99345.53;5013054;28;45391;-58
2022/08/29 06:44:13;;;;;;;;;21.33;17.67;;;;;22.14;64.05;99353.06;5008477;28;45493;-58
2022/08/29 06:46:41;;;;;;;;;24.33;21.33;;;;;22.19;63.50;99348.16;5014236;28;45596;-59
2022/08/29 06:49:10;;;;;;;;;17.25;16.25;;;;;22.25;63.36;99357.56;5014279;28;45415;-59
2022/08/29 06:51:37;;;;;;;;;20.00;16.75;;;;;22.31;63.62;99348.09;5015116;28;45522;-59
2022/08/29 06:54:05;;;;;;;;;19.00;18.75;;;;;22.37;63.46;99336.84;5015344;28;45513;-64
2022/08/29 06:56:31;;;;;;;;;4.00;3.67;;;;;22.49;63.32;99343.84;5012480;28;45895;-62
2022/08/29 06:58:56;;;;;;;;;27.33;24.33;;;;;22.54;62.87;99337.09;5014912;28;45530;-64
2022/08/29 07:01:22;;;;;;;;;21.25;17.25;;;;;22.55;63.02;99337.97;5014028;28;45572;-63
2022/08/29 07:03:49;;;;;;;;;23.67;23.00;;;;;22.57;62.46;99347.59;5000837;28;45486;-67
2022/08/29 07:06:16;;;;;;;;;20.50;19.50;;;;;22.59;62.27;99350.16;5012140;28;46301;-62
2022/08/29 07:08:42;;;;;;;;;20.75;17.25;;;;;22.61;62.27;99350.88;5014734;28;45535;-63
2022/08/29 07:11:07;;;;;;;;;18.50;17.75;;;;;22.63;62.24;99349.75;4992538;28;45536;-62
2022/08/29 07:13:36;;;;;;;;;16.75;16.75;;;;;22.66;62.59;99345.94;5003105;28;45524;-62
2022/08/29 07:16:02;;;;;;;;;21.25;20.00;;;;;22.71;62.37;99346.41;5002757;28;46241;-61
2022/08/29 07:18:29;;;;;;;;;23.00;23.00;;;;;22.75;62.46;99353.22;5001187;28;45505;-61
2022/08/29 07:20:54;;;;;;;;;21.75;20.75;;;;;22.81;61.92;99346.47;4995092;28;45567;-62
2022/08/29 07:23:22;;;;;;;;;18.00;18.00;;;;;22.88;62.27;99347.66;4999893;28;45423;-61
2022/08/29 07:25:49;;;;;;;;;22.00;18.50;;;;;22.92;61.89;99347.25;5002968;28;45521;-64
2022/08/29 07:28:14;;;;;;;;;17.75;17.00;;;;;22.98;61.27;99351.22;4998469;28;45436;-63
2022/08/29 07:30:40;;;;;;;;;21.75;18.50;;;;;23.05;61.22;99354.25;5001283;28;45464;-61
2022/08/29 07:33:05;;;;;;;;;20.00;19.00;;;;;23.09;60.94;99347.63;5001175;28;45508;-62
2022/08/29 07:35:30;;;;;;;;;23.00;19.00;;;;;23.14;61.14;99345.34;5006404;28;45768;-62
2022/08/29 07:38:00;;;;;;;;;20.00;19.00;;;;;23.20;61.58;99345.69;4992930;28;45424;-63
2022/08/29 07:40:25;;;;;;;;;17.00;16.00;;;;;23.27;61.26;99346.84;5011339;28;45485;-62
2022/08/29 07:42:51;;;;;;;;;16.25;16.25;;;;;23.32;60.81;99347.28;5010399;28;45311;-62
2022/08/29 07:45:17;;;;;;;;;20.50;18.75;;;;;23.38;60.15;99332.44;5010964;28;46502;-63
2022/08/29 07:47:42;;;;;;;;;14.75;14.75;;;;;23.44;59.98;99339.13;5003101;28;45492;-58
2022/08/29 07:50:10;;;;;;;;;19.25;17.75;;;;;23.52;59.78;99337.44;5002172;28;45357;-63
2022/08/29 07:52:36;;;;;;;;;20.00;18.00;;;;;23.58;59.48;99336.06;5009508;28;45630;-63
2022/08/29 07:55:03;;;;;;;;;17.00;17.00;;;;;23.62;59.40;99330.28;5010286;28;45485;-58
2022/08/29 07:57:29;;;;;;;;;15.50;15.50;;;;;23.69;59.36;99335.94;5008098;28;45442;-63
2022/08/29 07:59:54;;;;;;;;;17.25;16.25;;;;;23.75;58.95;99334.53;5012265;28;45968;-63
2022/08/29 08:02:20;;;;;;;;;16.00;16.00;;;;;23.79;58.69;99336.81;5013722;28;45340;-63
2022/08/29 08:04:46;;;;;;;;;19.25;17.50;;;;;23.85;58.24;99330.84;5001780;28;46497;-63
2022/08/29 08:07:12;;;;;;;;;18.00;18.00;;;;;23.91;58.53;99329.44;5007605;28;45431;-61
2022/08/29 08:09:38;;;;;;;;;16.00;15.75;;;;;23.95;58.14;99331.72;5012425;28;45553;-60
2022/08/29 08:12:05;;;;;;;;;15.50;14.75;;;;;24.01;58.14;99335.66;4993383;28;45717;-61
2022/08/29 08:14:32;;;;;;;;;16.00;15.25;;;;;24.07;57.90;99343.19;5005751;28;46498;-55
2022/08/29 08:16:57;;;;;;;;;40.50;35.00;;;;;24.15;57.72;99340.63;5006866;28;45435;-67
2022/08/29 08:19:23;;;;;;;;;21.50;18.25;;;;;24.23;57.11;99338.13;5002035;28;45579;-60
2022/08/29 08:21:48;;;;;;;;;16.25;15.25;;;;;24.29;57.23;99324.09;4985015;28;45442;-65
2022/08/29 08:24:14;;;;;;;;;18.50;16.50;;;;;24.34;56.99;99318.25;5012706;28;45569;-66
2022/08/29 08:26:39;;;;;;;;;17.75;15.00;;;;;24.40;56.64;99325.78;5012778;28;45464;-68
2022/08/29 08:29:04;;;;;;;;;17.25;17.25;;;;;24.45;56.63;99328.03;4997822;28;45446;-66
2022/08/29 08:31:30;;;;;;;;;18.25;16.75;;;;;24.47;56.23;99329.56;5007061;28;45517;-67
2022/08/29 08:33:57;;;;;;;;;10.75;8.00;;;;;24.54;56.18;99327.16;5003672;28;45467;-79
2022/08/29 08:36:27;;;;;;;;;20.00;18.00;;;;;24.58;55.99;99326.72;4994080;28;45466;-67
2022/08/29 08:38:53;;;;;;;;;17.50;15.75;;;;;24.63;55.96;99324.44;4992540;28;45597;-67
2022/08/29 08:41:43;;;;;;;;;24.00;20.25;;;;;24.69;55.74;99315.75;5010264;28;45535;-67
2022/08/29 08:44:34;;;;;;;;;16.00;15.00;;;;;24.76;55.74;99326.81;5005269;28;45462;-67
2022/08/29 08:47:06;;;;;;;;;17.25;16.25;;;;;24.79;55.42;99323.84;5008765;28;45445;-67
2022/08/29 08:49:43;;;;;;;;;19.25;18.00;;;;;24.83;55.50;99321.69;4995453;28;45517;-67
2022/08/29 08:52:30;;;;;;;;;20.00;16.25;;;;;24.89;55.54;99321.09;5009192;28;45478;-67
2022/08/29 08:55:01;;;;;;;;;17.00;17.00;;;;;24.94;55.07;99324.25;5010847;28;46168;-67
2022/08/29 08:57:36;;;;;;;;;19.25;18.50;;;;;24.99;54.84;99317.38;4994554;28;45530;-67
2022/08/29 09:00:04;;;;;;;;;15.25;14.75;;;;;25.08;54.54;99317.50;4998299;28;45588;-67
2022/08/29 09:02:30;;;;;;;;;21.75;20.75;;;;;25.13;54.57;99305.28;4988735;28;45388;-66
2022/08/29 09:05:10;;;;;;;;;20.25;18.75;;;;;25.20;54.30;99309.06;5000709;28;45848;-66
2022/08/29 09:07:50;;;;;;;;;19.75;19.50;;;;;25.23;54.06;99306.06;5000192;28;45546;-67
2022/08/29 09:10:30;;;;;;;;;18.75;18.50;;;;;25.27;54.15;99310.19;5014346;28;45319;-67
2022/08/29 09:13:29;;;;;;;;;18.50;17.50;;;;;25.34;54.32;99302.31;5011946;28;45538;-67
2022/08/29 09:15:58;;;;;;;;;18.50;18.50;;;;;25.41;54.39;99307.97;5008460;28;45456;-67
2022/08/29 09:18:31;;;;;;;;;16.50;15.25;;;;;25.42;54.06;99301.56;5007684;28;45516;-67
2022/08/29 09:20:58;;;;;;;;;16.25;16.25;;;;;25.44;53.95;99299.56;5011617;28;45415;-66
2022/08/29 09:23:29;;;;;;;;;18.50;16.50;;;;;25.49;54.39;99294.56;5007538;28;45370;-67
2022/08/29 09:25:55;;;;;;;;;18.25;18.25;;;;;25.54;53.94;99290.41;4995015;28;47428;-67
2022/08/29 09:28:20;;;;;;;;;18.25;17.00;;;;;25.59;53.81;99285.41;5013589;28;45292;-66
2022/08/29 09:31:21;;;;;;;;;16.75;15.75;;;;;25.63;53.90;99284.13;5011979;28;45565;-67
2022/08/29 09:33:51;;;;;;;;;18.25;17.50;;;;;25.69;53.41;99278.09;5010895;28;45394;-67
2022/08/29 09:36:32;;;;;;;;;19.50;19.00;;;;;25.78;53.29;99278.19;5014671;28;45582;-67
2022/08/29 09:39:22;;;;;;;;;20.00;18.75;;;;;25.85;53.67;99276.56;4997421;28;45450;-67
2022/08/29 09:41:52;;;;;;;;;14.50;14.50;;;;;25.90;53.53;99275.09;5005994;28;45438;-67
2022/08/29 09:44:28;;;;;;;;;16.75;16.75;;;;;25.97;53.43;99272.63;5004040;28;45550;-68
2022/08/29 09:47:18;;;;;;;;;15.50;15.50;;;;;26.05;53.19;99272.69;5005775;28;46293;-67
2022/08/29 09:50:02;;;;;;;;;8.00;8.00;;;;;26.12;52.97;99270.22;5004685;28;45802;-67
2022/08/29 09:52:28;;;;;;;;;19.25;18.50;;;;;26.20;52.64;99271.13;5007389;28;45403;-67
2022/08/29 09:54:54;;;;;;;;;18.00;18.00;;;;;26.28;52.68;99265.78;5008545;28;45478;-67
2022/08/29 09:57:19;;;;;;;;;17.00;15.75;;;;;26.35;52.03;99266.03;5011515;28;45602;-67
2022/08/29 10:00:03;;;;;;;;;16.00;15.75;;;;;26.44;51.87;99253.44;4997125;28;45425;-67
2022/08/29 10:02:45;;;;;;;;;18.75;18.00;;;;;26.51;51.10;99259.88;5002157;28;45298;-67
2022/08/29 10:05:33;;;;;;;;;18.25;15.25;;;;;26.61;50.61;99250.66;4999827;28;45759;-67
2022/08/29 10:08:02;;;;;;;;;15.50;15.50;;;;;26.69;50.93;99247.16;5004442;28;46321;-67
2022/08/29 10:10:33;;;;;;;;;20.50;17.75;;;;;26.77;50.41;99241.78;5014052;28;45496;-67
2022/08/29 10:13:16;;;;;;;;;20.50;16.75;;;;;26.84;49.77;99231.16;5014991;28;45428;-67
2022/08/29 10:16:13;;;;;;;;;19.75;17.25;;;;;26.90;49.55;99225.94;5008997;28;45439;-67
2022/08/29 10:18:54;;;;;;;;;18.00;18.00;;;;;26.94;49.27;99219.25;5000632;28;45427;-67
2022/08/29 10:21:40;;;;;;;;;21.50;20.75;;;;;27.02;49.29;99221.97;5011836;28;45436;-67
2022/08/29 10:24:24;;;;;;;;;18.25;18.25;;;;;27.09;49.12;99220.31;5007907;28;45471;-67
2022/08/29 10:27:33;;;;;;;;;20.25;18.75;;;;;27.19;48.75;99212.03;5007846;28;45566;-67
2022/08/29 10:30:09;;;;;;;;;15.25;14.25;;;;;27.28;49.21;99211.06;4968839;28;45363;-67
2022/08/29 10:33:06;;;;;;;;;16.00;16.00;;;;;27.37;48.95;99212.75;5010119;28;45493;-67
2022/08/29 10:35:57;;;;;;;;;16.00;15.75;;;;;27.44;48.91;99205.69;4998666;28;45402;-67
2022/08/29 10:38:37;;;;;;;;;20.75;18.75;;;;;27.52;48.56;99202.13;5000909;28;45380;-67
2022/08/29 10:41:24;;;;;;;;;18.75;18.00;;;;;27.64;48.46;99202.69;5006486;28;45700;-67
2022/08/29 10:44:01;;;;;;;;;18.50;18.00;;;;;27.74;48.30;99204.22;5011241;28;45507;-67
2022/08/29 10:46:50;;;;;;;;;18.25;18.00;;;;;27.82;49.00;99199.81;5005696;28;45376;-68
2022/08/29 10:49:47;;;;;;;;;16.75;16.75;;;;;27.88;47.47;99199.13;5009319;28;45480;-67
2022/08/29 10:52:51;;;;;;;;;17.50;16.75;;;;;27.89;47.49;99196.25;5006946;28;45467;-67
2022/08/29 10:55:40;;;;;;;;;16.75;16.75;;;;;27.93;46.81;99192.19;5000701;28;45439;-67
2022/08/29 10:58:18;;;;;;;;;20.75;18.25;;;;;27.96;46.37;99196.44;5011034;28;45396;-67
2022/08/29 11:01:01;;;;;;;;;15.75;15.75;;;;;27.98;46.52;99192.53;4996535;28;45433;-67
2022/08/29 11:03:38;;;;;;;;;18.50;17.00;;;;;28.02;46.62;99184.88;5008416;28;46227;-67
2022/08/29 11:06:29;;;;;;;;;14.00;14.00;;;;;28.07;46.61;99168.97;5000451;28;45399;-67
2022/08/29 11:09:13;;;;;;;;;18.00;17.25;;;;;28.14;46.44;99170.81;5007021;28;45474;-67
2022/08/29 11:11:45;;;;;;;;;17.75;17.25;;;;;28.25;46.79;99158.78;5010457;28;45477;-67
2022/08/29 11:14:34;;;;;;;;;19.75;19.50;;;;;28.40;46.04;99154.34;5011210;28;45956;-67
2022/08/29 11:17:02;;;;;;;;;19.50;19.50;;;;;28.54;45.59;99155.47;5008540;28;45481;-67
2022/08/29 11:19:36;;;;;;;;;16.00;16.00;;;;;28.67;45.63;99155.75;5011973;28;46679;-67
2022/08/29 11:22:15;;;;;;;;;15.50;15.50;;;;;28.79;45.42;99153.53;4988398;28;45411;-67
2022/08/29 11:24:44;;;;;;;;;15.00;13.00;;;;;28.88;44.40;99151.63;5000143;28;45472;-67
2022/08/29 11:27:39;;;;;;;;;16.75;14.75;;;;;29.00;44.64;99159.19;5009285;28;45459;-67
2022/08/29 11:30:10;;;;;;;;;8.75;8.75;;;;;29.12;43.04;99154.22;5001400;28;45536;-67
2022/08/29 11:32:51;;;;;;;;;16.75;15.25;;;;;29.16;42.58;99150.94;4989244;28;45380;-67